createdAt,value
2022-10-25T00:01:14.781Z,95467.66
2022-10-25T00:03:42.697Z,95461.53
2022-10-25T00:06:11.297Z,95466.53
2022-10-25T00:08:39.228Z,95457.63
2022-10-25T00:11:08.972Z,95448.09
2022-10-25T00:13:38.337Z,95450.09
2022-10-25T00:16:06.530Z,95447.53
2022-10-25T00:18:34.812Z,95446.13
2022-10-25T00:21:05.109Z,95453.66
2022-10-25T00:23:32.861Z,95444.56
2022-10-25T00:26:02.655Z,95454.03
2022-10-25T00:28:30.436Z,95449.72
2022-10-25T00:31:03.655Z,95445.75
2022-10-25T00:33:32.161Z,95441.56
2022-10-25T00:36:06.080Z,95447.31
2022-10-25T00:38:33.897Z,95427.88
2022-10-25T00:41:02.248Z,95435.19
2022-10-25T00:43:35.465Z,95439.41
2022-10-25T00:46:08.169Z,95447.13
2022-10-25T00:48:36.119Z,95449.69
2022-10-25T00:51:04.584Z,95441.59
2022-10-25T00:53:37.888Z,95439.59
2022-10-25T00:56:13.646Z,95436.44
2022-10-25T00:58:45.489Z,95440.00
2022-10-25T01:01:15.937Z,95442.56
2022-10-25T01:03:47.551Z,95440.03
2022-10-25T01:06:21.927Z,95426.94
2022-10-25T01:08:53.627Z,95430.69
2022-10-25T01:11:21.434Z,95433.22
2022-10-25T01:13:49.642Z,95433.03
2022-10-25T01:16:27.537Z,95438.19
2022-10-25T01:19:06.845Z,95433.22
2022-10-25T01:21:55.552Z,95432.28
2022-10-25T01:24:48.382Z,95435.47
2022-10-25T01:27:41.487Z,95434.47
2022-10-25T01:30:20.923Z,95432.69
2022-10-25T01:33:09.641Z,95421.97
2022-10-25T01:35:44.050Z,95418.84
2022-10-25T01:38:34.303Z,95413.84
2022-10-25T01:41:12.690Z,95414.81
2022-10-25T01:43:49.708Z,95417.00
2022-10-25T01:46:26.537Z,95413.88
2022-10-25T01:49:02.279Z,95419.81
2022-10-25T01:51:30.099Z,95417.66
2022-10-25T01:53:58.402Z,95422.00
2022-10-25T01:56:29.979Z,95423.00
2022-10-25T01:59:18.538Z,95431.91
2022-10-25T02:02:02.246Z,95418.63
2022-10-25T02:04:44.743Z,95427.13
2022-10-25T02:07:21.920Z,95421.16
2022-10-25T02:10:00.541Z,95413.03
2022-10-25T02:12:33.963Z,95416.97
2022-10-25T02:15:09.752Z,95424.94
2022-10-25T02:17:43.554Z,95437.00
2022-10-25T02:20:17.085Z,95430.88
2022-10-25T02:22:45.488Z,95430.66
2022-10-25T02:25:14.968Z,95435.78
2022-10-25T02:27:44.446Z,95407.47
2022-10-25T02:30:13.081Z,95428.09
2022-10-25T02:32:40.902Z,95433.81
2022-10-25T02:35:16.133Z,95441.59
2022-10-25T02:37:44.035Z,95435.44
2022-10-25T02:40:13.261Z,95442.38
2022-10-25T02:42:43.480Z,95442.16
2022-10-25T02:45:12.079Z,95436.22
2022-10-25T02:47:39.863Z,95444.44
2022-10-25T02:50:09.709Z,95440.50
2022-10-25T02:52:38.880Z,95440.69
2022-10-25T02:55:07.656Z,95446.41
2022-10-25T02:57:36.755Z,95446.78
2022-10-25T03:00:09.094Z,95445.63
2022-10-25T03:02:37.880Z,95435.22
2022-10-25T03:05:06.373Z,95438.56
2022-10-25T03:07:34.093Z,95448.31
2022-10-25T03:10:03.195Z,95443.53
2022-10-25T03:12:30.899Z,95434.63
2022-10-25T03:14:58.653Z,95446.50
2022-10-25T03:17:26.387Z,95451.84
2022-10-25T03:19:54.126Z,95454.00
2022-10-25T03:22:21.938Z,95449.66
2022-10-25T03:27:47.235Z,95454.38
2022-10-25T03:30:15.999Z,95447.66
2022-10-25T03:32:43.733Z,95453.22
2022-10-25T03:35:11.543Z,95449.25
2022-10-25T03:37:39.265Z,95457.38
2022-10-25T03:40:08.144Z,95460.75
2022-10-25T03:42:35.939Z,95459.31
2022-10-25T03:45:05.704Z,95460.13
2022-10-25T03:47:33.813Z,95458.31
2022-10-25T03:50:01.672Z,95463.47
2022-10-25T03:52:29.411Z,95453.03
2022-10-25T03:54:57.187Z,95462.16
2022-10-25T03:57:24.974Z,95459.78
2022-10-25T03:59:52.733Z,95462.94
2022-10-25T04:02:21.944Z,95457.78
2022-10-25T04:04:49.676Z,95466.91
2022-10-25T04:07:17.654Z,95464.75
2022-10-25T04:09:45.727Z,95460.00
2022-10-25T04:12:13.851Z,95462.16
2022-10-25T04:14:41.612Z,95453.44
2022-10-25T04:17:10.657Z,95455.63
2022-10-25T04:19:39.768Z,95462.72
2022-10-25T04:22:07.504Z,95458.56
2022-10-25T04:24:35.345Z,95462.56
2022-10-25T04:27:03.089Z,95458.59
2022-10-25T04:29:30.871Z,95449.28
2022-10-25T04:31:58.666Z,95444.53
2022-10-25T04:34:26.486Z,95449.69
2022-10-25T04:36:55.620Z,95448.09
2022-10-25T04:39:26.078Z,95450.69
2022-10-25T04:41:53.855Z,95452.25
2022-10-25T04:44:21.544Z,95454.44
2022-10-25T04:46:49.295Z,95445.69
2022-10-25T04:49:17.238Z,95457.97
2022-10-25T04:51:45.069Z,95459.78
2022-10-25T04:54:14.419Z,95452.28
2022-10-25T04:56:42.190Z,95455.81
2022-10-25T04:59:10.486Z,95451.50
2022-10-25T05:01:38.426Z,95457.81
2022-10-25T05:04:06.323Z,95465.72
2022-10-25T05:06:34.192Z,95461.16
2022-10-25T05:09:01.934Z,95476.81
2022-10-25T05:11:31.178Z,95471.88
2022-10-25T05:13:59.213Z,95469.09
2022-10-25T05:16:27.334Z,95471.47
2022-10-25T05:18:58.793Z,95469.28
2022-10-25T05:21:30.254Z,95479.94
2022-10-25T05:24:01.656Z,95468.31
2022-10-25T05:26:32.142Z,95461.09
2022-10-25T05:29:00.274Z,95476.97
2022-10-25T05:31:30.028Z,95483.88
2022-10-25T05:34:00.001Z,95472.38
2022-10-25T05:36:29.498Z,95464.25
2022-10-25T05:38:57.655Z,95491.59
2022-10-25T05:41:25.649Z,95489.41
2022-10-25T05:43:55.090Z,95496.16
2022-10-25T05:46:25.147Z,95492.97
2022-10-25T05:48:53.663Z,95497.53
2022-10-25T05:51:39.033Z,95495.94
2022-10-25T05:54:10.361Z,95492.34
2022-10-25T05:56:38.405Z,95491.72
2022-10-25T05:59:09.712Z,95499.88
2022-10-25T06:01:38.987Z,95500.69
2022-10-25T06:04:07.576Z,95496.94
2022-10-25T06:06:35.662Z,95505.69
2022-10-25T06:09:03.916Z,95500.31
2022-10-25T06:11:31.932Z,95508.84
2022-10-25T06:14:00.042Z,95514.97
2022-10-25T06:16:29.387Z,95504.06
2022-10-25T06:18:57.635Z,95529.03
2022-10-25T06:21:27.289Z,95527.06
2022-10-25T06:23:55.975Z,95518.53
2022-10-25T06:26:25.141Z,95516.69
2022-10-25T06:28:54.621Z,95537.31
2022-10-25T06:31:22.955Z,95545.59
2022-10-25T06:33:52.590Z,95555.59
2022-10-25T06:36:22.168Z,95554.06
2022-10-25T06:38:50.836Z,95547.56
2022-10-25T06:41:20.715Z,95546.31
2022-10-25T06:43:49.120Z,95554.84
2022-10-25T06:46:22.622Z,95544.44
2022-10-25T06:48:52.557Z,95547.19
2022-10-25T06:51:21.459Z,95545.59
2022-10-25T06:53:53.932Z,95551.56
2022-10-25T06:56:21.773Z,95543.88
2022-10-25T06:58:50.369Z,95544.88
2022-10-25T07:01:20.323Z,95543.09
2022-10-25T07:03:50.614Z,95545.06
2022-10-25T07:06:23.477Z,95556.34
2022-10-25T07:08:54.940Z,95544.44
2022-10-25T07:11:24.086Z,95553.72
2022-10-25T07:13:51.947Z,95558.28
2022-10-25T07:16:21.338Z,95555.84
2022-10-25T07:18:50.127Z,95567.28
2022-10-25T07:21:21.191Z,95570.00
2022-10-25T07:23:50.149Z,95579.28
2022-10-25T07:26:20.388Z,95588.88
2022-10-25T07:28:49.940Z,95587.84
2022-10-25T07:31:20.731Z,95582.06
2022-10-25T07:33:48.934Z,95588.72
2022-10-25T07:36:16.810Z,95585.69
2022-10-25T07:38:46.471Z,95585.59
2022-10-25T07:41:14.380Z,95590.50
2022-10-25T07:43:42.222Z,95588.75
2022-10-25T07:46:10.464Z,95586.56
2022-10-25T07:48:38.487Z,95591.22
2022-10-25T07:51:07.501Z,95599.88
2022-10-25T07:53:35.421Z,95601.00
2022-10-25T07:56:05.614Z,95606.47
2022-10-25T07:58:33.480Z,95608.38
2022-10-25T08:01:02.930Z,95614.53
2022-10-25T08:03:31.418Z,95613.19
2022-10-25T08:05:59.700Z,95607.31
2022-10-25T08:08:27.811Z,95612.75
2022-10-25T08:10:56.763Z,95615.09
2022-10-25T08:13:26.208Z,95609.38
2022-10-25T08:15:55.449Z,95612.91
2022-10-25T08:18:24.620Z,95602.84
2022-10-25T08:21:07.736Z,95604.94
2022-10-25T08:23:35.625Z,95610.03
2022-10-25T08:26:03.672Z,95609.22
2022-10-25T08:28:32.955Z,95606.06
2022-10-25T08:31:01.954Z,95610.78
2022-10-25T08:33:30.243Z,95611.38
2022-10-25T08:36:01.230Z,95610.25
2022-10-25T08:38:29.213Z,95609.72
2022-10-25T08:41:04.372Z,95611.13
2022-10-25T08:44:04.630Z,95612.00
2022-10-25T08:46:37.045Z,95607.59
2022-10-25T08:49:14.335Z,95614.38
2022-10-25T08:51:47.850Z,95613.72
2022-10-25T08:54:24.003Z,95618.16
2022-10-25T08:57:10.910Z,95612.34
2022-10-25T08:59:46.575Z,95614.69
2022-10-25T09:02:22.290Z,95616.63
2022-10-25T09:04:50.241Z,95614.75
2022-10-25T09:07:51.412Z,95617.44
2022-10-25T09:10:34.515Z,95607.59
2022-10-25T09:13:12.217Z,95616.69
2022-10-25T09:15:54.335Z,95610.44
2022-10-25T09:18:30.833Z,95612.59
2022-10-25T09:20:59.511Z,95615.09
2022-10-25T09:23:31.174Z,95614.03
2022-10-25T09:26:16.287Z,95610.78
2022-10-25T09:28:52.488Z,95610.03
2022-10-25T09:31:25.140Z,95608.72
2022-10-25T09:34:01.506Z,95609.59
2022-10-25T09:36:38.057Z,95603.69
2022-10-25T09:39:15.919Z,95611.50
2022-10-25T09:41:47.664Z,95611.16
2022-10-25T09:44:24.658Z,95604.22
2022-10-25T09:46:58.002Z,95610.09
2022-10-25T09:49:32.180Z,95618.97
2022-10-25T09:52:06.216Z,95617.59
2022-10-25T09:54:40.777Z,95621.25
2022-10-25T09:57:08.733Z,95615.78
2022-10-25T09:59:36.652Z,95622.44
2022-10-25T10:02:05.925Z,95615.16
2022-10-25T10:04:37.099Z,95623.50
2022-10-25T10:07:09.797Z,95620.75
2022-10-25T10:09:45.719Z,95624.16
2022-10-25T10:12:19.704Z,95617.97
2022-10-25T10:14:56.143Z,95622.47
2022-10-25T10:17:26.052Z,95619.69
2022-10-25T10:20:13.834Z,95616.31
2022-10-25T10:22:47.153Z,95617.25
2022-10-25T10:25:22.563Z,95620.91
2022-10-25T10:27:53.517Z,95621.00
2022-10-25T10:30:28.707Z,95622.03
2022-10-25T10:33:00.932Z,95615.72
2022-10-25T10:35:31.955Z,95615.81
2022-10-25T10:38:23.289Z,95616.25
2022-10-25T10:40:52.051Z,95613.91
2022-10-25T10:43:34.197Z,95604.53
2022-10-25T10:46:09.652Z,95601.69
2022-10-25T10:48:43.279Z,95607.38
2022-10-25T10:51:39.045Z,95602.09
2022-10-25T10:54:24.268Z,95601.34
2022-10-25T10:57:00.537Z,95599.63
2022-10-25T10:59:33.462Z,95591.91
2022-10-25T11:02:13.027Z,95597.00
2022-10-25T11:04:52.528Z,95598.94
2022-10-25T11:07:29.042Z,95584.97
2022-10-25T11:10:29.489Z,95589.81
2022-10-25T11:13:12.554Z,95582.56
2022-10-25T11:16:03.066Z,95587.06
2022-10-25T11:18:42.967Z,95585.47
2022-10-25T11:21:25.808Z,95589.75
2022-10-25T11:24:07.205Z,95581.06
2022-10-25T11:26:50.421Z,95583.78
2022-10-25T11:29:28.862Z,95573.59
2022-10-25T11:32:08.583Z,95577.00
2022-10-25T11:34:45.586Z,95575.06
2022-10-25T11:37:21.775Z,95571.16
2022-10-25T11:40:03.780Z,95565.38
2022-10-25T11:42:53.093Z,95568.91
2022-10-25T11:45:35.496Z,95559.19
2022-10-25T11:48:20.114Z,95549.78
2022-10-25T11:50:53.542Z,95556.75
2022-10-25T11:53:35.745Z,95557.69
2022-10-25T11:56:10.536Z,95558.28
2022-10-25T11:58:50.240Z,95549.13
2022-10-25T12:01:34.252Z,95543.72
2022-10-25T12:04:26.877Z,95547.41
2022-10-25T12:07:05.595Z,95543.50
2022-10-25T12:09:43.516Z,95542.00
2022-10-25T12:12:14.005Z,95554.19
2022-10-25T12:14:46.261Z,95541.34
2022-10-25T12:17:22.492Z,95553.13
2022-10-25T12:19:52.555Z,95540.81
2022-10-25T12:22:24.984Z,95542.91
2022-10-25T12:25:00.367Z,95551.75
2022-10-25T12:27:30.782Z,95548.78
2022-10-25T12:30:03.335Z,95554.13
2022-10-25T12:32:39.082Z,95541.97
2022-10-25T12:35:18.665Z,95552.88
2022-10-25T12:37:56.462Z,95550.28
2022-10-25T12:40:29.821Z,95545.31
2022-10-25T12:43:02.508Z,95540.50
2022-10-25T12:45:57.511Z,95532.88
2022-10-25T12:48:53.412Z,95542.47
2022-10-25T12:51:38.328Z,95546.00
2022-10-25T12:54:41.974Z,95542.50
2022-10-25T12:57:20.115Z,95527.50
2022-10-25T13:00:26.185Z,95536.91
2022-10-25T13:03:31.074Z,95525.53
2022-10-25T13:06:21.723Z,95531.38
2022-10-25T13:08:50.343Z,95531.31
2022-10-25T13:11:18.410Z,95530.31
2022-10-25T13:13:52.191Z,95535.97
2022-10-25T13:16:28.381Z,95532.63
2022-10-25T13:19:42.739Z,95546.03
2022-10-25T13:22:39.415Z,95535.19
2022-10-25T13:25:18.111Z,95533.59
2022-10-25T13:28:20.595Z,95535.41
2022-10-25T13:30:49.805Z,95529.88
2022-10-25T13:33:29.387Z,95517.88
2022-10-25T13:36:02.267Z,95508.00
2022-10-25T13:38:38.049Z,95522.50
2022-10-25T13:41:12.182Z,95511.63
2022-10-25T13:43:58.524Z,95523.66
2022-10-25T13:46:32.594Z,95504.91
2022-10-25T13:49:03.658Z,95512.06
2022-10-25T13:51:33.433Z,95509.69
2022-10-25T13:54:08.485Z,95514.19
2022-10-25T13:56:50.827Z,95521.53
2022-10-25T13:59:58.786Z,95514.16
2022-10-25T14:02:28.110Z,95511.69
2022-10-25T14:04:55.894Z,95508.84
2022-10-25T14:07:46.962Z,95502.91
2022-10-25T14:10:25.474Z,95504.34
2022-10-25T14:12:58.253Z,95497.22
2022-10-25T14:18:29.685Z,95490.88
2022-10-25T14:21:02.065Z,95501.25
2022-10-25T14:23:33.339Z,95504.16
2022-10-25T14:26:03.161Z,95497.00
2022-10-25T14:28:32.505Z,95505.19
2022-10-25T14:31:01.705Z,95492.06
2022-10-25T14:33:35.471Z,95497.41
2022-10-25T14:36:11.069Z,95498.06
2022-10-25T14:38:51.432Z,95498.28
2022-10-25T14:41:23.237Z,95499.63
2022-10-25T14:43:51.490Z,95501.66
2022-10-25T14:46:20.989Z,95493.16
2022-10-25T14:48:54.141Z,95493.56
2022-10-25T14:51:26.753Z,95495.50
2022-10-25T14:53:58.787Z,95489.84
2022-10-25T14:56:30.301Z,95482.91
2022-10-25T14:58:59.270Z,95481.19
2022-10-25T15:01:27.556Z,95488.19
2022-10-25T15:04:00.097Z,95489.41
2022-10-25T15:06:30.822Z,95486.31
2022-10-25T15:09:29.055Z,95483.22
2022-10-25T15:12:15.337Z,95487.25
2022-10-25T15:14:43.304Z,95479.44
2022-10-25T15:17:28.727Z,95480.88
2022-10-25T15:20:29.500Z,95484.28
2022-10-25T15:23:04.017Z,95486.00
2022-10-25T15:25:34.184Z,95479.84
2022-10-25T15:28:10.836Z,95480.84
2022-10-25T15:30:40.717Z,95482.44
2022-10-25T15:33:12.588Z,95488.28
2022-10-25T15:35:48.441Z,95479.09
2022-10-25T15:38:17.481Z,95482.28
2022-10-25T15:40:45.368Z,95474.44
2022-10-25T15:43:13.249Z,95474.75
2022-10-25T15:45:41.105Z,95468.63
2022-10-25T15:48:13.995Z,95476.94
2022-10-25T15:50:47.718Z,95470.78
2022-10-25T15:53:15.540Z,95473.88
2022-10-25T15:55:43.638Z,95472.09
2022-10-25T15:58:11.668Z,95475.06
2022-10-25T16:00:39.697Z,95474.03
2022-10-25T16:03:08.643Z,95475.19
2022-10-25T16:05:38.752Z,95476.16
2022-10-25T16:08:08.663Z,95467.28
2022-10-25T16:10:38.022Z,95475.72
2022-10-25T16:13:10.281Z,95466.91
2022-10-25T16:15:38.407Z,95473.97
2022-10-25T16:18:06.382Z,95470.31
2022-10-25T16:20:34.288Z,95466.06
2022-10-25T16:23:02.072Z,95467.88
2022-10-25T16:25:33.177Z,95462.38
2022-10-25T16:28:01.948Z,95470.41
2022-10-25T16:30:35.353Z,95462.91
2022-10-25T16:33:04.506Z,95461.78
2022-10-25T16:35:32.354Z,95461.03
2022-10-25T16:38:00.471Z,95466.41
2022-10-25T16:40:28.786Z,95464.03
2022-10-25T16:42:58.849Z,95468.00
2022-10-25T16:45:29.445Z,95474.13
2022-10-25T16:47:58.024Z,95469.38
2022-10-25T16:50:27.375Z,95486.25
2022-10-25T16:52:58.161Z,95471.22
2022-10-25T16:55:27.921Z,95475.41
2022-10-25T16:57:57.180Z,95485.94
2022-10-25T17:00:25.241Z,95484.16
2022-10-25T17:02:53.108Z,95485.41
2022-10-25T17:05:22.737Z,95481.63
2022-10-25T17:07:50.993Z,95481.25
2022-10-25T17:10:20.911Z,95483.66
2022-10-25T17:12:50.667Z,95480.91
2022-10-25T17:15:21.189Z,95486.19
2022-10-25T17:17:49.332Z,95484.00
2022-10-25T17:20:17.716Z,95479.06
2022-10-25T17:22:45.868Z,95488.75
2022-10-25T17:25:13.659Z,95492.72
2022-10-25T17:27:47.430Z,95492.56
2022-10-25T17:30:17.155Z,95480.50
2022-10-25T17:32:46.777Z,95486.25
2022-10-25T17:35:14.865Z,95477.34
2022-10-25T17:37:43.996Z,95484.69
2022-10-25T17:40:13.696Z,95485.69
2022-10-25T17:42:41.792Z,95487.44
2022-10-25T17:45:10.599Z,95482.28
2022-10-25T17:47:42.431Z,95476.78
2022-10-25T17:50:12.764Z,95475.34
2022-10-25T17:52:41.328Z,95472.59
2022-10-25T17:55:11.207Z,95474.59
2022-10-25T17:57:39.005Z,95470.84
2022-10-25T18:00:14.078Z,95471.47
2022-10-25T18:02:44.096Z,95467.72
2022-10-25T18:05:20.312Z,95470.88
2022-10-25T18:07:49.520Z,95456.41
2022-10-25T18:10:17.933Z,95468.91
2022-10-25T18:12:46.217Z,95470.47
2022-10-25T18:15:14.282Z,95470.47
2022-10-25T18:17:43.074Z,95466.94
2022-10-25T18:20:11.454Z,95465.53
2022-10-25T18:22:40.789Z,95471.06
2022-10-25T18:25:09.293Z,95464.94
2022-10-25T18:27:37.086Z,95462.16
2022-10-25T18:30:05.780Z,95459.97
2022-10-25T18:32:36.190Z,95456.03
2022-10-25T18:35:04.514Z,95459.19
2022-10-25T18:37:32.289Z,95449.31
2022-10-25T18:40:01.552Z,95452.88
2022-10-25T18:42:29.494Z,95450.09
2022-10-25T18:44:57.253Z,95452.84
2022-10-25T18:47:25.168Z,95445.72
2022-10-25T18:49:52.957Z,95443.53
2022-10-25T18:52:22.280Z,95439.94
2022-10-25T18:54:50.207Z,95435.00
2022-10-25T18:57:19.397Z,95439.34
2022-10-25T18:59:47.597Z,95427.06
2022-10-25T19:02:15.499Z,95422.94
2022-10-25T19:04:43.444Z,95426.91
2022-10-25T19:07:11.171Z,95431.63
2022-10-25T19:09:38.976Z,95428.25
2022-10-25T19:12:07.110Z,95428.63
2022-10-25T19:14:36.292Z,95429.00
2022-10-25T19:17:04.129Z,95423.09
2022-10-25T19:19:31.863Z,95415.16
2022-10-25T19:21:59.683Z,95412.75
2022-10-25T19:24:27.497Z,95407.03
2022-10-25T19:26:55.320Z,95407.63
2022-10-25T19:29:23.706Z,95404.66
2022-10-25T19:31:52.897Z,95409.81
2022-10-25T19:34:20.651Z,95402.09
2022-10-25T19:36:48.869Z,95402.09
2022-10-25T19:39:16.693Z,95401.13
2022-10-25T19:41:44.646Z,95397.16
2022-10-25T19:44:12.496Z,95402.09
2022-10-25T19:46:40.285Z,95391.63
2022-10-25T19:49:11.071Z,95403.88
2022-10-25T19:51:38.983Z,95396.19
2022-10-25T19:54:06.934Z,95394.78
2022-10-25T19:56:37.111Z,95387.25
2022-10-25T19:59:05.448Z,95395.94
2022-10-25T20:01:33.912Z,95382.66
2022-10-25T20:04:01.799Z,95383.63
2022-10-25T20:06:32.778Z,95380.84
2022-10-25T20:09:01.690Z,95377.03
2022-10-25T20:11:29.765Z,95379.00
2022-10-25T20:13:58.980Z,95379.41
2022-10-25T20:16:27.196Z,95383.00
2022-10-25T20:18:55.464Z,95384.97
2022-10-25T20:21:25.735Z,95380.25
2022-10-25T20:23:57.609Z,95385.19
2022-10-25T20:26:27.509Z,95385.97
2022-10-25T20:28:56.455Z,95393.06
2022-10-25T20:31:26.009Z,95384.34
2022-10-25T20:33:54.567Z,95384.13
2022-10-25T20:36:22.873Z,95388.69
2022-10-25T20:38:50.678Z,95386.47
2022-10-25T20:41:22.080Z,95386.28
2022-10-25T20:43:51.532Z,95391.22
2022-10-25T20:46:20.250Z,95380.53
2022-10-25T20:48:48.324Z,95382.53
2022-10-25T20:51:17.757Z,95382.16
2022-10-25T20:53:46.622Z,95372.31
2022-10-25T20:56:14.883Z,95380.16
2022-10-25T20:58:44.440Z,95378.78
2022-10-25T21:01:12.444Z,95383.72
2022-10-25T21:03:40.760Z,95346.22
2022-10-25T21:06:12.287Z,95349.78
2022-10-25T21:08:40.332Z,95369.25
2022-10-25T21:11:10.846Z,95372.91
2022-10-25T21:13:39.263Z,95360.13
2022-10-25T21:16:10.018Z,95383.97
2022-10-25T21:18:38.210Z,95378.47
2022-10-25T21:21:07.924Z,95379.34
2022-10-25T21:23:36.407Z,95374.88
2022-10-25T21:26:06.231Z,95379.66
2022-10-25T21:28:36.376Z,95374.78
2022-10-25T21:31:05.382Z,95371.38
2022-10-25T21:33:34.627Z,95359.34
2022-10-25T21:36:04.226Z,95357.16
2022-10-25T21:38:32.076Z,95358.69
2022-10-25T21:41:09.988Z,95361.06
2022-10-25T21:43:38.091Z,95354.19
2022-10-25T21:46:07.358Z,95355.75
2022-10-25T21:48:36.727Z,95330.91
2022-10-25T21:51:04.672Z,95335.88
2022-10-25T21:53:32.430Z,95334.22
2022-10-25T21:56:08.029Z,95332.03
2022-10-25T21:58:35.793Z,95331.00
2022-10-25T22:01:03.933Z,95325.06
2022-10-25T22:03:32.130Z,95325.13
2022-10-25T22:06:01.370Z,95326.09
2022-10-25T22:08:29.165Z,95326.03
2022-10-25T22:11:01.649Z,95318.09
2022-10-25T22:13:29.641Z,95334.63
2022-10-25T22:15:59.305Z,95332.25
2022-10-25T22:18:27.488Z,95329.66
2022-10-25T22:20:57.025Z,95323.50
2022-10-25T22:23:27.492Z,95316.97
2022-10-25T22:25:55.557Z,95321.91
2022-10-25T22:28:23.284Z,95317.06
2022-10-25T22:30:58.120Z,95310.13
2022-10-25T22:33:25.872Z,95310.13
2022-10-25T22:35:53.642Z,95305.25
2022-10-25T22:38:21.482Z,95305.59
2022-10-25T22:40:59.055Z,95309.25
2022-10-25T22:43:27.165Z,95316.19
2022-10-25T22:45:55.356Z,95316.19
2022-10-25T22:48:23.617Z,95324.28
2022-10-25T22:50:52.460Z,95324.31
2022-10-25T22:53:20.987Z,95318.78
2022-10-25T22:55:56.366Z,95320.16
2022-10-25T22:58:26.866Z,95321.19
2022-10-25T23:01:06.026Z,95323.09
2022-10-25T23:03:34.576Z,95318.97
2022-10-25T23:06:03.699Z,95318.97
2022-10-25T23:08:31.642Z,95324.72
2022-10-25T23:11:01.757Z,95327.66
2022-10-25T23:13:32.952Z,95338.91
2022-10-25T23:16:00.936Z,95339.69
2022-10-25T23:18:28.920Z,95336.34
2022-10-25T23:20:59.383Z,95332.22
2022-10-25T23:23:28.362Z,95327.44
2022-10-25T23:26:00.189Z,95331.19
2022-10-25T23:28:28.904Z,95331.19
2022-10-25T23:31:05.176Z,95323.31
2022-10-25T23:33:32.929Z,95337.94
2022-10-25T23:36:04.999Z,95333.97
2022-10-25T23:38:33.362Z,95329.03
2022-10-25T23:41:01.104Z,95331.19
2022-10-25T23:43:29.160Z,95327.88
2022-10-25T23:45:58.372Z,95327.28
2022-10-25T23:48:26.281Z,95321.16
2022-10-25T23:50:58.447Z,95315.81
2022-10-25T23:53:26.845Z,95325.66
2022-10-25T23:55:55.726Z,95317.78
2022-10-25T23:58:24.471Z,95313.41
